Portada
METAR-TAF:

METAR-TAF

Aeroports :

Hannover, Alemanya

latitud: 52-28N, longitud: 009-41E, altitud: 56 m

Observació

L'informe es va fer fa 34 minuts, a les 20:50 UTC
Vent 5 kt del Sud-Oest, variant entre Sud i Oest
Temperatura 22°C
Humitat 50%
Pressió 1011 hPa
Visibilitat 10 km o més
sense núvols per sota de 1500 mi sense presència de cumulonimbus.

METAR: EDDV 182050Z 23005KT 190V260 CAVOK 22/11 Q1011 NOSIG

Hora: 23:24 (21:24 UTC)

Pronòstic

L'informe es va fer fa 4 hores i 24 minuts, a les 17:00 UTC
Pronòstic vàlid del 18 a les 18 UTC al 19 a les 18 UTC
Vent 4 kt del Sud-Oest
Visibilitat 10 km o més
Escasses núvols a una alçada de 4000 ft
Evolucionant progressivament
l' 19 a les 06 UTC al 19 a les 08 UTC
Vent 8 kt del Oest

TAF: EDDV 181700Z 1818/1918 22004KT 9999 FEW040 BECMG 1906/1908 28008KT

Observacions i pronòstics meteorològics de més de 4000 aeroports (METAR i TAF).

Les estacions disponibles són els punts grocs i vermells al mapa.

Posi el ratolí al punt desitjat per veure el nom de l'estació.

Feu clic per veure les observacions i els pronòstics meteorològics.

Per canviar el mapa: feu clic els botons verds amb una creu de color negre per apropar; al botó verd amb un guió per allunyar la imatge; o en les fletxes verdes per a mapes adjacents.


METAR-TAF: